createdAt,value
2019-02-20T00:00:16.332Z,66.80
2019-02-20T00:02:44.787Z,63.48
2019-02-20T00:05:11.377Z,63.42
2019-02-20T00:07:37.895Z,67.20
2019-02-20T00:10:05.974Z,65.40
2019-02-20T00:12:32.653Z,62.65
2019-02-20T00:14:59.226Z,68.10
2019-02-20T00:17:27.583Z,69.72
2019-02-20T00:19:54.199Z,66.37
2019-02-20T00:22:20.790Z,62.20
2019-02-20T00:24:48.174Z,70.32
2019-02-20T00:27:14.960Z,76.07
2019-02-20T00:29:41.508Z,77.58
2019-02-20T00:32:08.092Z,75.78
2019-02-20T00:34:34.821Z,81.57
2019-02-20T00:37:01.649Z,73.83
2019-02-20T00:39:28.240Z,73.52
2019-02-20T00:41:54.913Z,75.40
2019-02-20T00:44:23.371Z,78.10
2019-02-20T00:46:51.822Z,72.92
2019-02-20T00:49:20.299Z,63.65
2019-02-20T00:51:48.791Z,66.05
2019-02-20T00:54:15.373Z,74.53
2019-02-20T00:56:41.934Z,61.75
2019-02-20T00:59:08.499Z,72.40
2019-02-20T01:01:35.072Z,74.25
2019-02-20T01:04:01.675Z,68.55
2019-02-20T01:06:28.516Z,67.27
2019-02-20T01:08:55.062Z,66.02
2019-02-20T01:11:21.647Z,69.32
2019-02-20T01:13:48.193Z,67.60
2019-02-20T01:16:14.723Z,69.75
2019-02-20T01:18:41.306Z,62.88
2019-02-20T01:21:07.830Z,60.83
2019-02-20T01:23:34.363Z,63.08
2019-02-20T01:26:00.921Z,66.42
2019-02-20T01:28:27.438Z,70.35
2019-02-20T01:30:54.010Z,69.32
2019-02-20T01:33:20.580Z,75.80
2019-02-20T01:35:47.216Z,73.35
2019-02-20T01:38:13.826Z,66.65
2019-02-20T01:40:40.399Z,71.67
2019-02-20T01:43:06.948Z,69.65
2019-02-20T01:45:33.528Z,71.60
2019-02-20T01:48:00.101Z,79.62
2019-02-20T01:50:26.703Z,70.47
2019-02-20T01:52:53.273Z,74.70
2019-02-20T01:55:19.959Z,73.00
2019-02-20T01:57:46.507Z,72.20
2019-02-20T02:00:13.191Z,66.37
2019-02-20T02:02:40.186Z,69.65
2019-02-20T02:05:14.921Z,70.08
2019-02-20T02:07:36.220Z,63.90
2019-02-20T02:10:04.402Z,60.90
2019-02-20T02:12:32.450Z,66.00
2019-02-20T02:14:59.117Z,66.05
2019-02-20T02:17:25.793Z,61.13
2019-02-20T02:19:52.341Z,69.82
2019-02-20T02:22:18.917Z,68.10
2019-02-20T02:24:45.490Z,69.37
2019-02-20T02:27:12.044Z,72.95
2019-02-20T02:29:38.708Z,70.62
2019-02-20T02:32:05.327Z,64.30
2019-02-20T02:34:31.846Z,69.67
2019-02-20T02:36:58.447Z,75.50
2019-02-20T02:39:25.043Z,75.37
2019-02-20T02:41:51.692Z,73.10
2019-02-20T02:44:18.219Z,71.97
2019-02-20T02:46:44.783Z,75.57
2019-02-20T02:49:11.319Z,74.72
2019-02-20T02:51:37.902Z,76.37
2019-02-20T02:54:04.499Z,73.12
2019-02-20T02:56:31.100Z,71.77
2019-02-20T02:58:57.680Z,72.47
2019-02-20T03:01:24.278Z,72.05
2019-02-20T03:03:50.963Z,69.37
2019-02-20T03:06:17.674Z,67.17
2019-02-20T03:08:44.278Z,66.28
2019-02-20T03:11:11.023Z,73.10
2019-02-20T03:13:38.822Z,77.27
2019-02-20T03:16:05.424Z,79.45
2019-02-20T03:18:32.081Z,73.30
2019-02-20T03:20:58.799Z,71.57
2019-02-20T03:23:25.373Z,76.47
2019-02-20T03:26:08.020Z,74.65
2019-02-20T03:28:37.660Z,73.30
2019-02-20T03:31:04.468Z,74.35
2019-02-20T03:33:30.989Z,68.28
2019-02-20T03:35:57.558Z,75.28
2019-02-20T03:38:30.221Z,65.17
2019-02-20T03:40:53.777Z,68.90
2019-02-20T03:43:20.469Z,62.58
2019-02-20T03:45:47.120Z,70.83
2019-02-20T03:48:13.958Z,77.72
2019-02-20T03:50:40.615Z,85.53
2019-02-20T03:53:07.967Z,79.05
2019-02-20T03:55:34.618Z,76.53
2019-02-20T03:58:02.075Z,71.70
2019-02-20T04:00:28.764Z,74.42
2019-02-20T04:02:55.454Z,67.87
2019-02-20T04:05:35.022Z,62.40
2019-02-20T04:08:05.152Z,65.65
2019-02-20T04:10:33.598Z,71.70
2019-02-20T04:13:00.226Z,77.22
2019-02-20T04:15:28.324Z,77.08
2019-02-20T04:17:56.870Z,77.55
2019-02-20T04:20:25.323Z,76.57
2019-02-20T04:22:52.077Z,67.62
2019-02-20T04:25:19.159Z,76.02
2019-02-20T04:27:45.789Z,80.65
2019-02-20T04:30:12.437Z,76.10
2019-02-20T04:32:39.082Z,79.90
2019-02-20T04:35:05.656Z,90.25
2019-02-20T04:37:32.328Z,81.63
2019-02-20T04:39:58.985Z,85.40
2019-02-20T04:42:25.797Z,78.52
2019-02-20T04:44:52.432Z,81.87
2019-02-20T04:47:20.895Z,74.10
2019-02-20T04:49:48.624Z,85.72
2019-02-20T04:52:17.079Z,84.62
2019-02-20T04:54:43.728Z,82.97
2019-02-20T04:57:11.070Z,85.32
2019-02-20T04:59:37.716Z,80.07
2019-02-20T05:02:04.370Z,72.12
2019-02-20T05:04:31.016Z,80.60
2019-02-20T05:06:57.921Z,68.85
2019-02-20T05:09:26.445Z,85.15
2019-02-20T05:11:54.872Z,85.53
2019-02-20T05:14:23.337Z,79.27
2019-02-20T05:16:52.286Z,94.17
2019-02-20T05:19:19.047Z,99.70
2019-02-20T05:21:45.810Z,85.72
2019-02-20T05:24:12.448Z,115.90
2019-02-20T05:26:38.981Z,90.15
2019-02-20T05:29:07.427Z,86.53
2019-02-20T05:31:34.070Z,82.60
2019-02-20T05:34:02.233Z,83.40
2019-02-20T05:36:30.666Z,79.32
2019-02-20T05:38:59.143Z,85.05
2019-02-20T05:41:27.566Z,86.02
2019-02-20T05:43:56.039Z,82.55
2019-02-20T05:46:24.488Z,82.70
2019-02-20T05:48:52.925Z,74.95
2019-02-20T05:51:21.410Z,79.75
2019-02-20T05:53:49.878Z,78.65
2019-02-20T05:56:18.351Z,73.70
2019-02-20T05:58:45.997Z,71.92
2019-02-20T06:01:14.453Z,76.07
2019-02-20T06:03:44.019Z,69.35
2019-02-20T06:06:12.473Z,77.32
2019-02-20T06:08:40.924Z,91.92
2019-02-20T06:11:14.812Z,93.82
2019-02-20T06:13:40.768Z,96.70
2019-02-20T06:16:09.018Z,90.32
2019-02-20T06:18:37.467Z,89.87
2019-02-20T06:21:05.912Z,85.62
2019-02-20T06:23:34.291Z,87.78
2019-02-20T06:26:02.766Z,89.58
2019-02-20T06:28:31.746Z,90.83
2019-02-20T06:31:00.656Z,93.12
2019-02-20T06:33:29.305Z,92.02
2019-02-20T06:35:57.783Z,94.03
2019-02-20T06:38:26.306Z,95.83
2019-02-20T06:40:55.044Z,87.85
2019-02-20T06:43:23.781Z,93.62
2019-02-20T06:45:55.632Z,90.77
2019-02-20T06:51:45.252Z,96.60
2019-02-20T06:57:11.781Z,87.33
2019-02-20T06:59:41.096Z,95.22
2019-02-20T07:05:46.340Z,96.02
2019-02-20T07:17:18.424Z,109.97
2019-02-20T07:20:29.454Z,113.80
2019-02-20T07:23:27.960Z,113.47
2019-02-20T07:29:48.868Z,108.32
2019-02-20T07:32:26.263Z,103.30
2019-02-20T07:35:14.079Z,102.58
2019-02-20T07:37:46.999Z,106.78
2019-02-20T07:43:15.513Z,117.30
2019-02-20T07:45:44.737Z,122.78
2019-02-20T07:48:13.688Z,117.13
2019-02-20T07:53:48.245Z,107.87
2019-02-20T07:56:19.639Z,110.55
2019-02-20T07:58:51.771Z,113.17
2019-02-20T08:01:22.760Z,97.67
2019-02-20T08:03:52.943Z,90.35
2019-02-20T08:06:29.283Z,88.12
2019-02-20T08:08:58.051Z,89.83
2019-02-20T08:11:27.963Z,98.60
2019-02-20T08:13:58.442Z,94.05
2019-02-20T08:16:31.247Z,93.70
2019-02-20T08:19:03.634Z,99.22
2019-02-20T08:21:32.623Z,91.72
2019-02-20T08:24:02.526Z,93.95
2019-02-20T08:26:33.323Z,93.58
2019-02-20T08:29:03.008Z,92.08
2019-02-20T08:31:32.287Z,98.03
2019-02-20T08:34:04.158Z,96.15
2019-02-20T08:36:31.355Z,87.90
2019-02-20T08:39:00.936Z,86.30
2019-02-20T08:41:30.022Z,84.80
2019-02-20T08:44:00.711Z,85.03
2019-02-20T08:46:36.603Z,85.53
2019-02-20T08:49:05.047Z,84.67
2019-02-20T08:51:34.701Z,80.42
2019-02-20T08:54:04.523Z,75.50
2019-02-20T08:56:31.369Z,79.80
2019-02-20T08:58:58.034Z,75.03
2019-02-20T09:01:24.684Z,78.30
2019-02-20T09:03:52.856Z,76.53
2019-02-20T09:06:19.455Z,70.47
2019-02-20T09:08:48.739Z,71.40
2019-02-20T09:11:15.635Z,70.17
2019-02-20T09:13:44.113Z,74.10
2019-02-20T09:16:11.154Z,67.53
2019-02-20T09:18:37.844Z,65.25
2019-02-20T09:21:04.491Z,57.25
2019-02-20T09:23:34.869Z,61.08
2019-02-20T09:26:01.768Z,58.92
2019-02-20T09:28:28.616Z,55.83
2019-02-20T09:30:55.806Z,57.38
2019-02-20T09:33:22.601Z,56.85
2019-02-20T09:35:51.703Z,56.05
2019-02-20T09:38:19.409Z,57.08
2019-02-20T09:40:48.199Z,55.45
2019-02-20T09:43:16.726Z,55.63
2019-02-20T09:45:45.542Z,54.63
2019-02-20T09:48:15.491Z,54.85
2019-02-20T09:50:48.332Z,57.43
2019-02-20T10:08:20.328Z,54.45
2019-02-20T10:10:49.498Z,55.05
2019-02-20T10:13:18.593Z,54.10
2019-02-20T10:15:47.697Z,52.95
2019-02-20T10:18:16.502Z,50.60
2019-02-20T10:20:48.041Z,51.55
2019-02-20T10:23:18.680Z,50.25
2019-02-20T10:31:49.182Z,48.38
2019-02-20T10:40:36.805Z,47.75
2019-02-20T10:43:21.306Z,45.60
2019-02-20T10:46:07.396Z,44.30
2019-02-20T10:48:44.532Z,44.65
2019-02-20T10:51:25.155Z,41.15
2019-02-20T10:54:01.342Z,40.43
2019-02-20T10:56:30.951Z,42.20
2019-02-20T10:58:59.815Z,40.67
2019-02-20T11:01:28.575Z,40.58
2019-02-20T11:03:57.112Z,41.83
2019-02-20T11:06:25.584Z,42.20
2019-02-20T11:08:54.277Z,37.88
2019-02-20T11:11:22.765Z,39.25
2019-02-20T11:13:51.365Z,41.95
2019-02-20T11:16:19.941Z,40.58
2019-02-20T11:18:48.414Z,40.88
2019-02-20T11:21:17.165Z,42.73
2019-02-20T11:23:44.755Z,41.63
2019-02-20T11:26:18.194Z,39.13
2019-02-20T11:28:43.120Z,38.58
2019-02-20T11:31:11.629Z,39.70
2019-02-20T11:33:40.226Z,40.40
2019-02-20T11:36:08.680Z,41.98
2019-02-20T11:38:37.165Z,41.55
2019-02-20T11:41:05.605Z,45.90
2019-02-20T11:43:34.052Z,41.30
2019-02-20T11:46:02.574Z,47.08
2019-02-20T11:48:31.027Z,173.97
2019-02-20T11:50:59.486Z,46.18
2019-02-20T11:53:27.957Z,55.20
2019-02-20T11:55:56.427Z,37.38
2019-02-20T11:58:24.918Z,33.73
2019-02-20T12:00:53.386Z,34.88
2019-02-20T12:03:21.835Z,34.33
2019-02-20T12:05:50.294Z,33.40
2019-02-20T12:08:18.883Z,33.10
2019-02-20T12:10:47.356Z,39.90
2019-02-20T12:13:15.827Z,42.90
2019-02-20T12:15:44.285Z,37.95
2019-02-20T12:18:17.303Z,35.10
2019-02-20T12:20:42.997Z,34.98
2019-02-20T12:23:11.743Z,34.98
2019-02-20T12:25:40.194Z,35.63
2019-02-20T12:28:08.602Z,33.55
2019-02-20T12:30:38.082Z,34.35
2019-02-20T12:33:06.593Z,35.92
2019-02-20T12:35:35.035Z,34.53
2019-02-20T12:38:03.479Z,32.95
2019-02-20T12:40:31.929Z,34.83
2019-02-20T12:43:00.367Z,33.05
2019-02-20T12:45:28.829Z,41.00
2019-02-20T12:47:57.279Z,33.42
2019-02-20T12:50:25.760Z,32.08
2019-02-20T12:52:54.257Z,31.52
2019-02-20T12:55:22.749Z,32.50
2019-02-20T12:57:51.326Z,31.75
2019-02-20T13:00:21.533Z,30.17
2019-02-20T13:02:50.071Z,31.80
2019-02-20T13:05:18.543Z,33.48
2019-02-20T13:07:47.165Z,31.30
2019-02-20T13:10:15.593Z,31.85
2019-02-20T13:12:44.058Z,32.88
2019-02-20T13:15:12.634Z,33.18
2019-02-20T13:17:41.160Z,33.90
2019-02-20T13:20:10.225Z,37.38
2019-02-20T13:22:38.714Z,32.42
2019-02-20T13:25:08.125Z,44.30
2019-02-20T13:27:36.564Z,31.87
2019-02-20T13:30:08.438Z,30.70
2019-02-20T13:32:37.070Z,33.35
2019-02-20T13:35:05.521Z,39.78
2019-02-20T13:37:34.083Z,35.83
2019-02-20T13:40:02.839Z,33.30
2019-02-20T13:42:32.098Z,33.02
2019-02-20T13:45:00.618Z,32.78
2019-02-20T13:47:29.057Z,33.38
2019-02-20T13:49:58.531Z,32.95
2019-02-20T13:52:26.969Z,31.93
2019-02-20T13:54:55.457Z,31.70
2019-02-20T13:57:23.922Z,32.78
2019-02-20T13:59:52.384Z,31.95
2019-02-20T14:02:20.810Z,33.35
2019-02-20T14:04:49.263Z,46.68
2019-02-20T14:07:18.724Z,30.90
2019-02-20T14:09:47.186Z,31.57
2019-02-20T14:12:15.863Z,31.52
2019-02-20T14:14:44.326Z,30.00
2019-02-20T14:17:12.761Z,31.33
2019-02-20T14:19:41.236Z,51.00
2019-02-20T14:22:10.543Z,34.45
2019-02-20T14:24:39.014Z,35.15
2019-02-20T14:27:10.814Z,82.40
2019-02-20T14:29:37.783Z,65.37
2019-02-20T14:32:06.256Z,71.42
2019-02-20T14:34:34.796Z,49.23
2019-02-20T14:37:03.280Z,33.85
2019-02-20T14:39:32.815Z,36.83
2019-02-20T14:42:01.278Z,38.08
2019-02-20T14:44:30.015Z,33.13
2019-02-20T14:46:58.455Z,32.75
2019-02-20T14:49:26.894Z,39.00
2019-02-20T14:51:56.260Z,31.57
2019-02-20T14:54:24.856Z,33.05
2019-02-20T14:56:53.592Z,33.88
2019-02-20T14:59:22.208Z,31.10
2019-02-20T15:01:51.251Z,34.83
2019-02-20T15:04:19.703Z,35.43
2019-02-20T15:06:48.380Z,32.78
2019-02-20T15:09:19.370Z,32.53
2019-02-20T15:11:47.914Z,33.40
2019-02-20T15:14:16.388Z,31.07
2019-02-20T15:16:44.831Z,31.85
2019-02-20T15:19:13.273Z,31.68
2019-02-20T15:21:41.727Z,30.45
2019-02-20T15:24:10.178Z,30.32
2019-02-20T15:26:38.609Z,31.00
2019-02-20T15:29:07.074Z,31.02
2019-02-20T15:31:35.595Z,30.10
2019-02-20T15:34:04.951Z,31.95
2019-02-20T15:36:33.520Z,31.30
2019-02-20T15:39:02.191Z,35.30
2019-02-20T15:41:32.558Z,34.95
2019-02-20T15:44:01.146Z,32.78
2019-02-20T15:46:29.598Z,31.73
2019-02-20T15:48:58.503Z,38.85
2019-02-20T15:51:28.640Z,32.55
2019-02-20T15:53:57.151Z,30.27
2019-02-20T15:56:25.648Z,31.05
2019-02-20T15:58:54.118Z,29.95
2019-02-20T16:01:22.566Z,29.50
2019-02-20T16:03:51.133Z,35.08
2019-02-20T16:06:21.258Z,40.33
2019-02-20T16:08:49.739Z,40.60
2019-02-20T16:11:24.655Z,39.88
2019-02-20T16:16:50.210Z,41.45
2019-02-20T16:19:18.950Z,41.77
2019-02-20T16:21:48.513Z,37.30
2019-02-20T16:24:19.385Z,35.50
2019-02-20T16:26:47.837Z,34.90
2019-02-20T16:29:16.318Z,36.55
2019-02-20T16:31:45.077Z,38.33
2019-02-20T16:34:14.594Z,36.55
2019-02-20T16:36:43.083Z,36.20
2019-02-20T16:39:11.538Z,34.33
2019-02-20T16:41:40.176Z,35.90
2019-02-20T16:44:10.115Z,36.85
2019-02-20T16:46:38.629Z,35.92
2019-02-20T16:49:07.075Z,37.13
2019-02-20T16:51:35.511Z,37.35
2019-02-20T16:54:04.979Z,34.98
2019-02-20T16:56:33.695Z,35.52
2019-02-20T16:59:02.191Z,37.35
2019-02-20T17:01:30.651Z,36.03
2019-02-20T17:03:59.397Z,40.08
2019-02-20T17:06:27.887Z,37.28
2019-02-20T17:08:56.388Z,37.58
2019-02-20T17:11:24.863Z,38.55
2019-02-20T17:13:53.345Z,35.68
2019-02-20T17:16:21.841Z,36.88
2019-02-20T17:18:50.341Z,36.83
2019-02-20T17:21:19.013Z,36.33
2019-02-20T17:23:47.487Z,36.98
2019-02-20T17:26:15.915Z,34.05
2019-02-20T17:28:44.404Z,42.23
2019-02-20T17:31:12.907Z,51.33
2019-02-20T17:33:41.380Z,46.58
2019-02-20T17:36:09.871Z,47.90
2019-02-20T17:38:38.407Z,44.35
2019-02-20T17:41:06.880Z,44.42
2019-02-20T17:43:35.347Z,40.12
2019-02-20T17:46:03.808Z,46.70
2019-02-20T17:48:32.267Z,42.23
2019-02-20T17:51:00.725Z,42.43
2019-02-20T17:53:29.502Z,39.88
2019-02-20T17:55:57.944Z,37.40
2019-02-20T17:58:26.424Z,41.48
2019-02-20T18:00:54.885Z,44.20
2019-02-20T18:03:23.439Z,42.48
2019-02-20T18:05:51.923Z,43.05
2019-02-20T18:08:20.539Z,41.77
2019-02-20T18:10:49.037Z,39.58
2019-02-20T18:13:17.540Z,46.15
2019-02-20T18:15:45.997Z,46.45
2019-02-20T18:18:14.565Z,48.02
2019-02-20T18:20:43.475Z,43.35
2019-02-20T18:23:11.987Z,37.17
2019-02-20T18:25:40.605Z,45.75
2019-02-20T18:28:09.210Z,40.95
2019-02-20T18:30:37.804Z,28.38
2019-02-20T18:33:06.350Z,25.45
2019-02-20T18:35:34.839Z,30.52
2019-02-20T18:38:03.409Z,35.43
2019-02-20T18:40:31.968Z,31.90
2019-02-20T18:43:00.599Z,29.98
2019-02-20T18:45:29.168Z,33.38
2019-02-20T18:47:57.619Z,29.87
2019-02-20T18:50:27.823Z,26.73
2019-02-20T18:52:56.330Z,35.52
2019-02-20T18:55:24.900Z,48.63
2019-02-20T18:57:53.351Z,31.75
2019-02-20T19:00:21.838Z,33.28
2019-02-20T19:02:50.500Z,29.23
2019-02-20T19:05:19.314Z,29.70
2019-02-20T19:07:48.027Z,27.27
2019-02-20T19:10:26.370Z,26.45
2019-02-20T19:13:24.480Z,27.13
2019-02-20T19:16:03.000Z,29.95
2019-02-20T19:19:05.376Z,29.40
2019-02-20T19:21:46.326Z,27.40
2019-02-20T19:24:44.330Z,32.10
2019-02-20T19:27:22.539Z,60.20
2019-02-20T19:30:17.210Z,63.60
2019-02-20T19:32:55.623Z,67.12
2019-02-20T19:35:49.085Z,63.42
2019-02-20T19:38:33.301Z,64.25
2019-02-20T19:41:22.128Z,58.98
2019-02-20T19:44:00.422Z,50.40
2019-02-20T19:46:45.188Z,54.60
2019-02-20T19:49:35.373Z,56.83
2019-02-20T19:52:32.388Z,55.30
2019-02-20T19:55:13.648Z,59.85
2019-02-20T19:57:51.988Z,56.15
2019-02-20T20:00:24.425Z,59.20
2019-02-20T20:03:20.990Z,53.30
2019-02-20T20:05:53.343Z,48.95
2019-02-20T20:08:45.357Z,57.10
2019-02-20T20:11:44.258Z,51.48
2019-02-20T20:14:37.286Z,49.98
2019-02-20T20:17:32.417Z,41.68
2019-02-20T20:20:22.807Z,55.58
2019-02-20T20:23:10.061Z,52.67
2019-02-20T20:25:54.454Z,45.10
2019-02-20T20:31:06.101Z,28.17
2019-02-20T20:33:56.722Z,46.05
2019-02-20T20:36:47.214Z,37.42
2019-02-20T20:39:40.714Z,33.65
2019-02-20T20:42:18.944Z,46.65
2019-02-20T20:44:57.208Z,35.45
2019-02-20T20:47:35.589Z,53.00
2019-02-20T20:50:17.145Z,50.00
2019-02-20T20:52:52.020Z,36.45
2019-02-20T20:55:45.478Z,34.10
2019-02-20T20:58:41.999Z,34.18
2019-02-20T21:01:32.383Z,32.17
2019-02-20T21:04:10.678Z,33.42
2019-02-20T21:06:57.504Z,32.35
2019-02-20T21:09:35.639Z,32.83
2019-02-20T21:12:10.605Z,31.00
2019-02-20T21:14:45.962Z,34.10
2019-02-20T21:17:21.251Z,39.58
2019-02-20T21:19:59.790Z,37.85
2019-02-20T21:22:35.083Z,41.02
2019-02-20T21:25:17.059Z,41.90
2019-02-20T21:28:06.007Z,46.60
2019-02-20T21:30:52.955Z,47.03
2019-02-20T21:33:39.479Z,44.40
2019-02-20T21:36:17.731Z,43.08
2019-02-20T21:39:08.089Z,45.60
2019-02-20T21:41:49.925Z,47.25
2019-02-20T21:44:22.165Z,45.90
2019-02-20T21:47:11.911Z,43.35
2019-02-20T21:49:56.270Z,38.23
2019-02-20T21:55:43.938Z,37.45
2019-02-20T21:58:25.284Z,38.15
2019-02-20T22:01:12.273Z,36.73
2019-02-20T22:03:56.663Z,37.00
2019-02-20T22:06:41.003Z,66.40
2019-02-20T22:09:22.227Z,59.08
2019-02-20T22:12:03.681Z,43.87
2019-02-20T22:14:52.193Z,41.60
2019-02-20T22:17:36.052Z,43.55
2019-02-20T22:20:30.985Z,45.70
2019-02-20T22:23:21.496Z,43.42
2019-02-20T22:26:14.884Z,36.85
2019-02-20T22:28:59.071Z,39.95
2019-02-20T22:31:43.485Z,47.38
2019-02-20T22:36:54.702Z,66.47
2019-02-20T22:39:35.806Z,61.98
2019-02-20T22:42:29.311Z,60.45
2019-02-20T22:45:07.126Z,59.55
2019-02-20T22:47:54.549Z,50.05
2019-02-20T22:50:49.013Z,59.70
2019-02-20T22:53:21.297Z,54.00
2019-02-20T22:56:28.394Z,52.35
2019-02-20T22:59:01.490Z,51.23
2019-02-20T23:01:36.429Z,53.17
2019-02-20T23:04:11.788Z,48.45
2019-02-20T23:07:03.728Z,45.45
2019-02-20T23:09:38.749Z,32.90
2019-02-20T23:12:29.116Z,35.55
2019-02-20T23:14:58.632Z,35.45
2019-02-20T23:17:27.405Z,37.70
2019-02-20T23:19:55.864Z,39.10
2019-02-20T23:22:24.303Z,39.63
2019-02-20T23:24:52.790Z,39.50
2019-02-20T23:27:21.351Z,42.40
2019-02-20T23:29:50.794Z,41.33
2019-02-20T23:32:19.323Z,41.40
2019-02-20T23:34:47.761Z,46.10
2019-02-20T23:37:16.200Z,41.33
2019-02-20T23:39:44.655Z,45.00
2019-02-20T23:42:13.112Z,48.50
2019-02-20T23:44:41.564Z,47.00
2019-02-20T23:47:09.986Z,44.27
2019-02-20T23:49:38.425Z,40.70
2019-02-20T23:52:06.872Z,44.73
2019-02-20T23:54:35.296Z,51.65
2019-02-20T23:57:03.778Z,45.12
2019-02-20T23:59:32.272Z,45.03
